sensor_id;sensor_type;location;lat;lon;timestamp;P1;durP1;ratioP1;P2;durP2;ratioP2
18210;SDS011;9231;48.852;9.882;2023-02-28T00:00:03;3.63;;;2.10;;
18210;SDS011;9231;48.852;9.882;2023-02-28T00:02:34;2.70;;;1.90;;
18210;SDS011;9231;48.852;9.882;2023-02-28T00:05:03;3.97;;;1.83;;
18210;SDS011;9231;48.852;9.882;2023-02-28T00:07:29;4.40;;;1.93;;
18210;SDS011;9231;48.852;9.882;2023-02-28T00:09:56;5.03;;;1.70;;
18210;SDS011;9231;48.852;9.882;2023-02-28T00:12:22;3.60;;;1.93;;
18210;SDS011;9231;48.852;9.882;2023-02-28T00:14:49;3.97;;;2.10;;
18210;SDS011;9231;48.852;9.882;2023-02-28T00:17:15;2.60;;;1.83;;
18210;SDS011;9231;48.852;9.882;2023-02-28T00:19:42;3.97;;;2.17;;
18210;SDS011;9231;48.852;9.882;2023-02-28T00:22:10;3.40;;;2.00;;
18210;SDS011;9231;48.852;9.882;2023-02-28T00:24:37;3.47;;;2.07;;
18210;SDS011;9231;48.852;9.882;2023-02-28T00:27:03;3.90;;;2.30;;
18210;SDS011;9231;48.852;9.882;2023-02-28T00:29:30;4.50;;;2.20;;
18210;SDS011;9231;48.852;9.882;2023-02-28T00:31:56;3.07;;;2.00;;
18210;SDS011;9231;48.852;9.882;2023-02-28T00:34:23;3.43;;;1.87;;
18210;SDS011;9231;48.852;9.882;2023-02-28T00:36:49;5.27;;;2.17;;
18210;SDS011;9231;48.852;9.882;2023-02-28T00:39:17;4.47;;;2.00;;
18210;SDS011;9231;48.852;9.882;2023-02-28T00:41:44;3.13;;;1.73;;
18210;SDS011;9231;48.852;9.882;2023-02-28T00:44:10;4.93;;;2.20;;
18210;SDS011;9231;48.852;9.882;2023-02-28T00:46:37;3.50;;;2.00;;
18210;SDS011;9231;48.852;9.882;2023-02-28T00:49:03;3.30;;;2.40;;
18210;SDS011;9231;48.852;9.882;2023-02-28T00:51:30;3.90;;;2.60;;
18210;SDS011;9231;48.852;9.882;2023-02-28T00:53:56;4.33;;;2.37;;
18210;SDS011;9231;48.852;9.882;2023-02-28T00:56:24;3.13;;;2.07;;
18210;SDS011;9231;48.852;9.882;2023-02-28T00:58:50;2.57;;;2.07;;
18210;SDS011;9231;48.852;9.882;2023-02-28T01:01:17;4.60;;;2.40;;
18210;SDS011;9231;48.852;9.882;2023-02-28T01:03:43;2.77;;;2.00;;
18210;SDS011;9231;48.852;9.882;2023-02-28T01:06:09;4.13;;;2.40;;
18210;SDS011;9231;48.852;9.882;2023-02-28T01:08:36;4.07;;;2.57;;
18210;SDS011;9231;48.852;9.882;2023-02-28T01:11:07;2.77;;;2.10;;
18210;SDS011;9231;48.852;9.882;2023-02-28T01:13:35;4.67;;;2.43;;
18210;SDS011;9231;48.852;9.882;2023-02-28T01:16:01;4.40;;;2.50;;
18210;SDS011;9231;48.852;9.882;2023-02-28T01:18:28;5.77;;;2.63;;
18210;SDS011;9231;48.852;9.882;2023-02-28T01:20:55;3.20;;;2.27;;
18210;SDS011;9231;48.852;9.882;2023-02-28T01:23:22;3.73;;;2.60;;
18210;SDS011;9231;48.852;9.882;2023-02-28T01:25:49;3.83;;;2.10;;
18210;SDS011;9231;48.852;9.882;2023-02-28T01:28:15;3.07;;;2.53;;
18210;SDS011;9231;48.852;9.882;2023-02-28T01:30:46;4.80;;;2.70;;
18210;SDS011;9231;48.852;9.882;2023-02-28T01:33:13;3.33;;;2.40;;
18210;SDS011;9231;48.852;9.882;2023-02-28T01:35:39;3.80;;;2.50;;
18210;SDS011;9231;48.852;9.882;2023-02-28T01:38:06;4.63;;;2.60;;
18210;SDS011;9231;48.852;9.882;2023-02-28T01:40:32;3.60;;;2.23;;
18210;SDS011;9231;48.852;9.882;2023-02-28T01:42:59;3.13;;;2.47;;
18210;SDS011;9231;48.852;9.882;2023-02-28T01:45:26;2.93;;;2.30;;
18210;SDS011;9231;48.852;9.882;2023-02-28T01:47:55;3.20;;;2.57;;
18210;SDS011;9231;48.852;9.882;2023-02-28T01:50:24;3.30;;;2.50;;
18210;SDS011;9231;48.852;9.882;2023-02-28T01:52:51;3.93;;;2.80;;
18210;SDS011;9231;48.852;9.882;2023-02-28T01:55:20;4.37;;;2.60;;
18210;SDS011;9231;48.852;9.882;2023-02-28T01:57:48;3.47;;;2.37;;
18210;SDS011;9231;48.852;9.882;2023-02-28T02:00:15;3.60;;;2.40;;
18210;SDS011;9231;48.852;9.882;2023-02-28T02:02:43;4.13;;;2.70;;
18210;SDS011;9231;48.852;9.882;2023-02-28T02:05:14;3.10;;;2.30;;
18210;SDS011;9231;48.852;9.882;2023-02-28T02:07:45;3.80;;;2.40;;
18210;SDS011;9231;48.852;9.882;2023-02-28T02:10:13;4.13;;;2.67;;
18210;SDS011;9231;48.852;9.882;2023-02-28T02:15:38;2.53;;;2.27;;
18210;SDS011;9231;48.852;9.882;2023-02-28T02:18:08;5.03;;;2.50;;
18210;SDS011;9231;48.852;9.882;2023-02-28T02:23:28;2.97;;;2.33;;
18210;SDS011;9231;48.852;9.882;2023-02-28T02:25:58;6.50;;;2.77;;
18210;SDS011;9231;48.852;9.882;2023-02-28T02:28:46;2.87;;;2.37;;
18210;SDS011;9231;48.852;9.882;2023-02-28T02:31:32;4.20;;;2.40;;
18210;SDS011;9231;48.852;9.882;2023-02-28T02:37:00;4.80;;;2.60;;
18210;SDS011;9231;48.852;9.882;2023-02-28T02:39:30;5.90;;;2.67;;
18210;SDS011;9231;48.852;9.882;2023-02-28T02:41:58;3.97;;;2.67;;
18210;SDS011;9231;48.852;9.882;2023-02-28T02:44:27;4.60;;;2.73;;
18210;SDS011;9231;48.852;9.882;2023-02-28T02:46:55;3.63;;;2.67;;
18210;SDS011;9231;48.852;9.882;2023-02-28T02:49:26;5.00;;;2.90;;
18210;SDS011;9231;48.852;9.882;2023-02-28T02:51:53;4.10;;;2.73;;
18210;SDS011;9231;48.852;9.882;2023-02-28T02:54:23;5.37;;;3.27;;
18210;SDS011;9231;48.852;9.882;2023-02-28T02:56:54;4.03;;;2.60;;
18210;SDS011;9231;48.852;9.882;2023-02-28T02:59:22;4.87;;;3.00;;
18210;SDS011;9231;48.852;9.882;2023-02-28T03:01:50;4.80;;;2.73;;
18210;SDS011;9231;48.852;9.882;2023-02-28T03:04:18;4.27;;;2.90;;
18210;SDS011;9231;48.852;9.882;2023-02-28T03:06:45;7.97;;;3.17;;
18210;SDS011;9231;48.852;9.882;2023-02-28T03:09:11;4.13;;;2.60;;
18210;SDS011;9231;48.852;9.882;2023-02-28T03:11:40;4.33;;;2.90;;
18210;SDS011;9231;48.852;9.882;2023-02-28T03:14:10;3.37;;;3.07;;
18210;SDS011;9231;48.852;9.882;2023-02-28T03:16:46;5.20;;;3.50;;
18210;SDS011;9231;48.852;9.882;2023-02-28T03:19:28;4.93;;;2.87;;
18210;SDS011;9231;48.852;9.882;2023-02-28T03:22:00;3.00;;;2.50;;
18210;SDS011;9231;48.852;9.882;2023-02-28T03:24:31;5.47;;;3.70;;
18210;SDS011;9231;48.852;9.882;2023-02-28T03:27:04;4.60;;;2.90;;
18210;SDS011;9231;48.852;9.882;2023-02-28T03:29:33;5.03;;;2.90;;
18210;SDS011;9231;48.852;9.882;2023-02-28T03:32:02;4.93;;;3.27;;
18210;SDS011;9231;48.852;9.882;2023-02-28T03:34:31;4.07;;;3.33;;
18210;SDS011;9231;48.852;9.882;2023-02-28T03:37:00;5.27;;;3.10;;
18210;SDS011;9231;48.852;9.882;2023-02-28T03:39:28;5.30;;;3.30;;
18210;SDS011;9231;48.852;9.882;2023-02-28T03:41:57;4.87;;;3.00;;
18210;SDS011;9231;48.852;9.882;2023-02-28T03:44:27;5.40;;;3.60;;
18210;SDS011;9231;48.852;9.882;2023-02-28T03:46:56;4.93;;;3.27;;
18210;SDS011;9231;48.852;9.882;2023-02-28T03:49:24;4.17;;;3.07;;
18210;SDS011;9231;48.852;9.882;2023-02-28T03:51:52;6.17;;;3.27;;
18210;SDS011;9231;48.852;9.882;2023-02-28T03:54:21;5.73;;;3.33;;
18210;SDS011;9231;48.852;9.882;2023-02-28T03:56:51;5.47;;;3.40;;
18210;SDS011;9231;48.852;9.882;2023-02-28T03:59:20;6.00;;;3.27;;
18210;SDS011;9231;48.852;9.882;2023-02-28T04:01:50;7.03;;;3.73;;
18210;SDS011;9231;48.852;9.882;2023-02-28T04:04:16;4.87;;;3.67;;
18210;SDS011;9231;48.852;9.882;2023-02-28T04:06:44;5.63;;;4.07;;
18210;SDS011;9231;48.852;9.882;2023-02-28T04:09:11;5.23;;;3.20;;
18210;SDS011;9231;48.852;9.882;2023-02-28T04:11:38;4.40;;;3.30;;
18210;SDS011;9231;48.852;9.882;2023-02-28T04:14:05;7.33;;;4.40;;
18210;SDS011;9231;48.852;9.882;2023-02-28T04:16:32;5.10;;;3.77;;
18210;SDS011;9231;48.852;9.882;2023-02-28T04:19:00;6.00;;;3.80;;
18210;SDS011;9231;48.852;9.882;2023-02-28T04:21:28;4.73;;;3.43;;
18210;SDS011;9231;48.852;9.882;2023-02-28T04:23:54;5.13;;;3.97;;
18210;SDS011;9231;48.852;9.882;2023-02-28T04:26:25;6.20;;;3.80;;
18210;SDS011;9231;48.852;9.882;2023-02-28T04:28:53;7.60;;;3.70;;
18210;SDS011;9231;48.852;9.882;2023-02-28T04:31:20;7.30;;;3.53;;
18210;SDS011;9231;48.852;9.882;2023-02-28T04:33:46;5.13;;;3.57;;
18210;SDS011;9231;48.852;9.882;2023-02-28T04:36:14;4.37;;;3.43;;
18210;SDS011;9231;48.852;9.882;2023-02-28T04:38:44;6.53;;;4.10;;
18210;SDS011;9231;48.852;9.882;2023-02-28T04:41:11;5.23;;;4.43;;
18210;SDS011;9231;48.852;9.882;2023-02-28T04:43:37;5.37;;;3.97;;
18210;SDS011;9231;48.852;9.882;2023-02-28T04:46:04;3.97;;;3.37;;
18210;SDS011;9231;48.852;9.882;2023-02-28T04:48:32;8.50;;;4.30;;
18210;SDS011;9231;48.852;9.882;2023-02-28T04:50:59;5.40;;;4.30;;
18210;SDS011;9231;48.852;9.882;2023-02-28T04:53:28;5.73;;;4.20;;
18210;SDS011;9231;48.852;9.882;2023-02-28T04:55:55;5.03;;;3.37;;
18210;SDS011;9231;48.852;9.882;2023-02-28T04:58:21;5.40;;;4.00;;
18210;SDS011;9231;48.852;9.882;2023-02-28T05:00:48;4.87;;;3.77;;
18210;SDS011;9231;48.852;9.882;2023-02-28T05:03:15;4.43;;;3.70;;
18210;SDS011;9231;48.852;9.882;2023-02-28T05:05:41;5.53;;;3.57;;
18210;SDS011;9231;48.852;9.882;2023-02-28T05:08:08;5.87;;;4.37;;
18210;SDS011;9231;48.852;9.882;2023-02-28T05:10:35;7.27;;;4.03;;
18210;SDS011;9231;48.852;9.882;2023-02-28T05:13:02;4.93;;;3.57;;
18210;SDS011;9231;48.852;9.882;2023-02-28T05:15:28;5.60;;;4.03;;
18210;SDS011;9231;48.852;9.882;2023-02-28T05:17:55;6.43;;;4.30;;
18210;SDS011;9231;48.852;9.882;2023-02-28T05:20:21;6.40;;;4.00;;
18210;SDS011;9231;48.852;9.882;2023-02-28T05:22:49;5.53;;;4.10;;
18210;SDS011;9231;48.852;9.882;2023-02-28T05:25:16;5.43;;;4.20;;
18210;SDS011;9231;48.852;9.882;2023-02-28T05:27:45;8.30;;;4.73;;
18210;SDS011;9231;48.852;9.882;2023-02-28T05:30:11;6.23;;;4.17;;
18210;SDS011;9231;48.852;9.882;2023-02-28T05:32:38;9.33;;;4.40;;
18210;SDS011;9231;48.852;9.882;2023-02-28T05:35:08;8.10;;;4.40;;
18210;SDS011;9231;48.852;9.882;2023-02-28T05:37:34;4.70;;;4.10;;
18210;SDS011;9231;48.852;9.882;2023-02-28T05:40:01;5.50;;;4.37;;
18210;SDS011;9231;48.852;9.882;2023-02-28T05:42:31;7.67;;;4.57;;
18210;SDS011;9231;48.852;9.882;2023-02-28T05:44:58;6.10;;;4.50;;
18210;SDS011;9231;48.852;9.882;2023-02-28T05:47:25;6.63;;;4.83;;
18210;SDS011;9231;48.852;9.882;2023-02-28T05:49:51;6.47;;;4.60;;
18210;SDS011;9231;48.852;9.882;2023-02-28T05:52:18;6.67;;;4.67;;
18210;SDS011;9231;48.852;9.882;2023-02-28T05:54:45;7.60;;;4.70;;
18210;SDS011;9231;48.852;9.882;2023-02-28T05:57:12;5.90;;;4.30;;
18210;SDS011;9231;48.852;9.882;2023-02-28T05:59:38;6.60;;;4.43;;
18210;SDS011;9231;48.852;9.882;2023-02-28T06:02:06;5.97;;;4.70;;
18210;SDS011;9231;48.852;9.882;2023-02-28T06:04:36;7.47;;;4.37;;
18210;SDS011;9231;48.852;9.882;2023-02-28T06:07:03;6.85;;;5.60;;
18210;SDS011;9231;48.852;9.882;2023-02-28T06:09:29;7.67;;;5.20;;
18210;SDS011;9231;48.852;9.882;2023-02-28T06:11:57;5.73;;;4.33;;
18210;SDS011;9231;48.852;9.882;2023-02-28T06:14:23;6.23;;;5.00;;
18210;SDS011;9231;48.852;9.882;2023-02-28T06:16:50;6.40;;;4.77;;
18210;SDS011;9231;48.852;9.882;2023-02-28T06:19:18;6.07;;;4.73;;
18210;SDS011;9231;48.852;9.882;2023-02-28T06:21:44;6.40;;;4.00;;
18210;SDS011;9231;48.852;9.882;2023-02-28T06:24:10;7.33;;;4.73;;
18210;SDS011;9231;48.852;9.882;2023-02-28T06:26:37;7.80;;;4.80;;
18210;SDS011;9231;48.852;9.882;2023-02-28T06:29:03;7.47;;;4.93;;
18210;SDS011;9231;48.852;9.882;2023-02-28T06:31:30;6.07;;;4.57;;
18210;SDS011;9231;48.852;9.882;2023-02-28T06:33:56;8.07;;;5.63;;
18210;SDS011;9231;48.852;9.882;2023-02-28T06:36:24;8.50;;;5.17;;
18210;SDS011;9231;48.852;9.882;2023-02-28T06:38:50;7.20;;;4.70;;
18210;SDS011;9231;48.852;9.882;2023-02-28T06:41:20;7.33;;;4.70;;
18210;SDS011;9231;48.852;9.882;2023-02-28T06:43:46;7.00;;;5.23;;
18210;SDS011;9231;48.852;9.882;2023-02-28T06:46:13;7.57;;;5.53;;
18210;SDS011;9231;48.852;9.882;2023-02-28T06:48:40;6.53;;;5.47;;
18210;SDS011;9231;48.852;9.882;2023-02-28T06:51:07;6.33;;;5.47;;
18210;SDS011;9231;48.852;9.882;2023-02-28T06:53:35;6.67;;;4.80;;
18210;SDS011;9231;48.852;9.882;2023-02-28T06:56:03;8.13;;;5.30;;
18210;SDS011;9231;48.852;9.882;2023-02-28T06:58:30;7.27;;;4.77;;
18210;SDS011;9231;48.852;9.882;2023-02-28T07:00:57;7.87;;;5.20;;
18210;SDS011;9231;48.852;9.882;2023-02-28T07:03:23;8.73;;;5.00;;
18210;SDS011;9231;48.852;9.882;2023-02-28T07:05:49;10.40;;;5.10;;
18210;SDS011;9231;48.852;9.882;2023-02-28T07:08:16;7.17;;;4.63;;
18210;SDS011;9231;48.852;9.882;2023-02-28T07:10:44;7.80;;;4.37;;
18210;SDS011;9231;48.852;9.882;2023-02-28T07:13:10;7.53;;;5.60;;
18210;SDS011;9231;48.852;9.882;2023-02-28T07:15:37;9.97;;;5.50;;
18210;SDS011;9231;48.852;9.882;2023-02-28T07:18:03;8.03;;;4.93;;
18210;SDS011;9231;48.852;9.882;2023-02-28T07:20:30;8.33;;;5.80;;
18210;SDS011;9231;48.852;9.882;2023-02-28T07:22:56;8.33;;;5.27;;
18210;SDS011;9231;48.852;9.882;2023-02-28T07:25:23;7.77;;;5.23;;
18210;SDS011;9231;48.852;9.882;2023-02-28T07:27:51;6.60;;;5.23;;
18210;SDS011;9231;48.852;9.882;2023-02-28T07:30:17;6.17;;;4.90;;
18210;SDS011;9231;48.852;9.882;2023-02-28T07:32:44;8.93;;;5.53;;
18210;SDS011;9231;48.852;9.882;2023-02-28T07:35:11;8.07;;;5.73;;
18210;SDS011;9231;48.852;9.882;2023-02-28T07:37:37;7.67;;;5.93;;
18210;SDS011;9231;48.852;9.882;2023-02-28T07:40:04;7.00;;;5.20;;
18210;SDS011;9231;48.852;9.882;2023-02-28T07:42:33;9.77;;;5.77;;
18210;SDS011;9231;48.852;9.882;2023-02-28T07:45:01;8.57;;;5.83;;
18210;SDS011;9231;48.852;9.882;2023-02-28T07:47:28;9.87;;;6.13;;
18210;SDS011;9231;48.852;9.882;2023-02-28T07:49:54;10.37;;;5.97;;
18210;SDS011;9231;48.852;9.882;2023-02-28T07:52:21;9.30;;;5.77;;
18210;SDS011;9231;48.852;9.882;2023-02-28T07:54:48;7.33;;;5.40;;
18210;SDS011;9231;48.852;9.882;2023-02-28T07:57:15;7.23;;;5.43;;
18210;SDS011;9231;48.852;9.882;2023-02-28T07:59:41;8.27;;;5.80;;
18210;SDS011;9231;48.852;9.882;2023-02-28T08:02:10;8.27;;;5.80;;
18210;SDS011;9231;48.852;9.882;2023-02-28T08:04:38;7.57;;;5.87;;
18210;SDS011;9231;48.852;9.882;2023-02-28T08:07:04;8.53;;;5.93;;
18210;SDS011;9231;48.852;9.882;2023-02-28T08:09:30;8.17;;;5.77;;
18210;SDS011;9231;48.852;9.882;2023-02-28T08:11:57;10.87;;;6.40;;
18210;SDS011;9231;48.852;9.882;2023-02-28T08:14:23;7.27;;;5.90;;
18210;SDS011;9231;48.852;9.882;2023-02-28T08:16:50;7.77;;;6.47;;
18210;SDS011;9231;48.852;9.882;2023-02-28T08:19:18;8.80;;;6.20;;
18210;SDS011;9231;48.852;9.882;2023-02-28T08:21:44;8.00;;;5.93;;
18210;SDS011;9231;48.852;9.882;2023-02-28T08:24:10;10.43;;;6.90;;
18210;SDS011;9231;48.852;9.882;2023-02-28T08:26:37;7.70;;;5.80;;
18210;SDS011;9231;48.852;9.882;2023-02-28T08:29:03;8.97;;;6.47;;
18210;SDS011;9231;48.852;9.882;2023-02-28T08:31:30;8.67;;;6.13;;
18210;SDS011;9231;48.852;9.882;2023-02-28T08:33:56;9.67;;;6.10;;
18210;SDS011;9231;48.852;9.882;2023-02-28T08:36:25;8.27;;;6.30;;
18210;SDS011;9231;48.852;9.882;2023-02-28T08:38:53;9.07;;;6.07;;
18210;SDS011;9231;48.852;9.882;2023-02-28T08:41:19;9.73;;;5.63;;
18210;SDS011;9231;48.852;9.882;2023-02-28T08:43:46;8.60;;;6.30;;
18210;SDS011;9231;48.852;9.882;2023-02-28T08:46:13;7.80;;;6.00;;
18210;SDS011;9231;48.852;9.882;2023-02-28T08:48:39;7.50;;;5.10;;
18210;SDS011;9231;48.852;9.882;2023-02-28T08:51:08;8.03;;;5.80;;
18210;SDS011;9231;48.852;9.882;2023-02-28T08:53:36;8.60;;;6.17;;
18210;SDS011;9231;48.852;9.882;2023-02-28T08:56:03;8.93;;;6.23;;
18210;SDS011;9231;48.852;9.882;2023-02-28T08:58:30;9.27;;;6.37;;
18210;SDS011;9231;48.852;9.882;2023-02-28T09:00:58;8.47;;;6.10;;
18210;SDS011;9231;48.852;9.882;2023-02-28T09:03:24;10.27;;;6.60;;
18210;SDS011;9231;48.852;9.882;2023-02-28T09:05:53;7.93;;;6.03;;
18210;SDS011;9231;48.852;9.882;2023-02-28T09:08:20;8.43;;;6.67;;
18210;SDS011;9231;48.852;9.882;2023-02-28T09:10:48;8.23;;;5.87;;
18210;SDS011;9231;48.852;9.882;2023-02-28T09:13:14;8.10;;;6.30;;
18210;SDS011;9231;48.852;9.882;2023-02-28T09:15:41;7.30;;;6.23;;
18210;SDS011;9231;48.852;9.882;2023-02-28T09:18:07;7.87;;;5.63;;
18210;SDS011;9231;48.852;9.882;2023-02-28T09:20:34;7.87;;;6.27;;
18210;SDS011;9231;48.852;9.882;2023-02-28T09:23:00;9.10;;;6.20;;
18210;SDS011;9231;48.852;9.882;2023-02-28T09:25:26;9.50;;;6.60;;
18210;SDS011;9231;48.852;9.882;2023-02-28T09:27:54;8.07;;;6.10;;
18210;SDS011;9231;48.852;9.882;2023-02-28T09:30:21;7.50;;;5.73;;
18210;SDS011;9231;48.852;9.882;2023-02-28T09:32:47;9.13;;;6.50;;
18210;SDS011;9231;48.852;9.882;2023-02-28T09:35:17;7.97;;;6.73;;
18210;SDS011;9231;48.852;9.882;2023-02-28T09:37:43;9.97;;;6.33;;
18210;SDS011;9231;48.852;9.882;2023-02-28T09:40:10;7.47;;;6.10;;
18210;SDS011;9231;48.852;9.882;2023-02-28T09:42:37;10.07;;;6.80;;
18210;SDS011;9231;48.852;9.882;2023-02-28T09:45:10;10.07;;;6.53;;
18210;SDS011;9231;48.852;9.882;2023-02-28T09:47:41;11.07;;;7.57;;
18210;SDS011;9231;48.852;9.882;2023-02-28T09:50:13;10.97;;;6.80;;
18210;SDS011;9231;48.852;9.882;2023-02-28T09:52:42;8.03;;;6.53;;
18210;SDS011;9231;48.852;9.882;2023-02-28T09:55:17;9.40;;;7.37;;
18210;SDS011;9231;48.852;9.882;2023-02-28T09:57:45;8.67;;;6.10;;
18210;SDS011;9231;48.852;9.882;2023-02-28T10:00:15;8.10;;;6.53;;
18210;SDS011;9231;48.852;9.882;2023-02-28T10:05:29;8.90;;;6.50;;
18210;SDS011;9231;48.852;9.882;2023-02-28T10:08:01;9.57;;;6.47;;
18210;SDS011;9231;48.852;9.882;2023-02-28T10:10:32;10.53;;;6.07;;
18210;SDS011;9231;48.852;9.882;2023-02-28T10:13:00;7.70;;;6.53;;
18210;SDS011;9231;48.852;9.882;2023-02-28T10:15:29;7.83;;;6.30;;
18210;SDS011;9231;48.852;9.882;2023-02-28T10:17:57;10.17;;;7.00;;
18210;SDS011;9231;48.852;9.882;2023-02-28T10:20:24;7.83;;;6.23;;
18210;SDS011;9231;48.852;9.882;2023-02-28T10:22:57;9.50;;;7.07;;
18210;SDS011;9231;48.852;9.882;2023-02-28T10:25:25;10.53;;;6.87;;
18210;SDS011;9231;48.852;9.882;2023-02-28T10:27:52;8.43;;;6.33;;
18210;SDS011;9231;48.852;9.882;2023-02-28T10:30:20;8.77;;;6.13;;
18210;SDS011;9231;48.852;9.882;2023-02-28T10:32:49;8.90;;;6.53;;
18210;SDS011;9231;48.852;9.882;2023-02-28T10:35:16;10.03;;;6.97;;
18210;SDS011;9231;48.852;9.882;2023-02-28T10:37:45;8.40;;;6.27;;
18210;SDS011;9231;48.852;9.882;2023-02-28T10:40:25;7.37;;;5.83;;
18210;SDS011;9231;48.852;9.882;2023-02-28T10:42:54;7.20;;;6.13;;
18210;SDS011;9231;48.852;9.882;2023-02-28T10:45:21;8.27;;;6.20;;
18210;SDS011;9231;48.852;9.882;2023-02-28T10:47:52;10.40;;;6.63;;
18210;SDS011;9231;48.852;9.882;2023-02-28T10:50:28;8.20;;;6.33;;
18210;SDS011;9231;48.852;9.882;2023-02-28T10:52:54;7.33;;;5.67;;
18210;SDS011;9231;48.852;9.882;2023-02-28T10:55:22;8.83;;;5.87;;
18210;SDS011;9231;48.852;9.882;2023-02-28T10:57:50;8.73;;;5.83;;
18210;SDS011;9231;48.852;9.882;2023-02-28T11:00:17;10.73;;;7.03;;
18210;SDS011;9231;48.852;9.882;2023-02-28T11:02:44;7.50;;;6.23;;
18210;SDS011;9231;48.852;9.882;2023-02-28T11:05:26;8.17;;;6.20;;
18210;SDS011;9231;48.852;9.882;2023-02-28T11:07:53;9.03;;;6.47;;
18210;SDS011;9231;48.852;9.882;2023-02-28T11:10:21;8.10;;;6.00;;
18210;SDS011;9231;48.852;9.882;2023-02-28T11:12:53;8.70;;;6.17;;
18210;SDS011;9231;48.852;9.882;2023-02-28T11:15:21;6.90;;;6.00;;
18210;SDS011;9231;48.852;9.882;2023-02-28T11:17:53;8.37;;;6.60;;
18210;SDS011;9231;48.852;9.882;2023-02-28T11:20:20;7.93;;;6.30;;
18210;SDS011;9231;48.852;9.882;2023-02-28T11:22:49;6.83;;;6.00;;
18210;SDS011;9231;48.852;9.882;2023-02-28T11:25:19;7.23;;;5.73;;
18210;SDS011;9231;48.852;9.882;2023-02-28T11:27:47;8.63;;;5.80;;
18210;SDS011;9231;48.852;9.882;2023-02-28T11:30:31;8.10;;;5.97;;
18210;SDS011;9231;48.852;9.882;2023-02-28T11:32:58;7.57;;;6.30;;
18210;SDS011;9231;48.852;9.882;2023-02-28T11:35:26;8.47;;;6.00;;
18210;SDS011;9231;48.852;9.882;2023-02-28T11:37:54;8.20;;;5.87;;
18210;SDS011;9231;48.852;9.882;2023-02-28T11:40:23;7.20;;;6.10;;
18210;SDS011;9231;48.852;9.882;2023-02-28T11:42:54;7.23;;;5.90;;
18210;SDS011;9231;48.852;9.882;2023-02-28T11:45:31;7.67;;;5.93;;
18210;SDS011;9231;48.852;9.882;2023-02-28T11:48:08;7.00;;;6.10;;
18210;SDS011;9231;48.852;9.882;2023-02-28T11:50:42;7.20;;;6.00;;
18210;SDS011;9231;48.852;9.882;2023-02-28T11:53:16;7.23;;;5.77;;
18210;SDS011;9231;48.852;9.882;2023-02-28T11:55:46;8.83;;;6.57;;
18210;SDS011;9231;48.852;9.882;2023-02-28T11:58:17;11.20;;;6.10;;
18210;SDS011;9231;48.852;9.882;2023-02-28T12:00:55;7.63;;;6.13;;
18210;SDS011;9231;48.852;9.882;2023-02-28T12:03:29;8.13;;;5.80;;
18210;SDS011;9231;48.852;9.882;2023-02-28T12:06:00;7.67;;;5.73;;
18210;SDS011;9231;48.852;9.882;2023-02-28T12:08:40;8.37;;;6.20;;
18210;SDS011;9231;48.852;9.882;2023-02-28T12:11:10;7.23;;;5.67;;
18210;SDS011;9231;48.852;9.882;2023-02-28T12:13:40;6.70;;;6.00;;
18210;SDS011;9231;48.852;9.882;2023-02-28T12:16:14;8.23;;;5.23;;
18210;SDS011;9231;48.852;9.882;2023-02-28T12:21:31;7.90;;;5.67;;
18210;SDS011;9231;48.852;9.882;2023-02-28T12:24:08;6.40;;;5.70;;
18210;SDS011;9231;48.852;9.882;2023-02-28T12:26:43;6.53;;;5.73;;
18210;SDS011;9231;48.852;9.882;2023-02-28T12:29:13;6.37;;;5.47;;
18210;SDS011;9231;48.852;9.882;2023-02-28T12:31:41;7.27;;;5.50;;
18210;SDS011;9231;48.852;9.882;2023-02-28T12:34:10;6.33;;;5.60;;
18210;SDS011;9231;48.852;9.882;2023-02-28T12:36:38;6.57;;;5.47;;
18210;SDS011;9231;48.852;9.882;2023-02-28T12:39:08;6.97;;;5.90;;
18210;SDS011;9231;48.852;9.882;2023-02-28T12:41:39;7.90;;;6.17;;
18210;SDS011;9231;48.852;9.882;2023-02-28T12:44:07;6.63;;;5.47;;
18210;SDS011;9231;48.852;9.882;2023-02-28T12:46:35;7.97;;;5.50;;
18210;SDS011;9231;48.852;9.882;2023-02-28T12:49:05;7.23;;;5.70;;
18210;SDS011;9231;48.852;9.882;2023-02-28T12:51:32;6.90;;;5.60;;
18210;SDS011;9231;48.852;9.882;2023-02-28T12:54:04;7.37;;;5.43;;
18210;SDS011;9231;48.852;9.882;2023-02-28T12:56:35;6.13;;;5.50;;
18210;SDS011;9231;48.852;9.882;2023-02-28T12:59:06;6.20;;;5.37;;
18210;SDS011;9231;48.852;9.882;2023-02-28T13:01:46;6.20;;;5.47;;
18210;SDS011;9231;48.852;9.882;2023-02-28T13:07:00;8.63;;;6.10;;
18210;SDS011;9231;48.852;9.882;2023-02-28T13:09:32;6.50;;;5.10;;
18210;SDS011;9231;48.852;9.882;2023-02-28T13:12:00;6.33;;;5.63;;
18210;SDS011;9231;48.852;9.882;2023-02-28T13:14:28;8.40;;;5.77;;
18210;SDS011;9231;48.852;9.882;2023-02-28T13:16:56;6.80;;;5.67;;
18210;SDS011;9231;48.852;9.882;2023-02-28T13:19:24;8.67;;;6.07;;
18210;SDS011;9231;48.852;9.882;2023-02-28T13:21:51;7.90;;;5.93;;
18210;SDS011;9231;48.852;9.882;2023-02-28T13:29:58;8.00;;;6.27;;
18210;SDS011;9231;48.852;9.882;2023-02-28T13:35:15;7.17;;;5.83;;
18210;SDS011;9231;48.852;9.882;2023-02-28T13:38:15;6.93;;;6.13;;
18210;SDS011;9231;48.852;9.882;2023-02-28T13:40:41;8.17;;;6.00;;
18210;SDS011;9231;48.852;9.882;2023-02-28T13:43:08;8.60;;;6.33;;
18210;SDS011;9231;48.852;9.882;2023-02-28T13:45:36;7.20;;;5.70;;
18210;SDS011;9231;48.852;9.882;2023-02-28T13:48:05;7.17;;;6.10;;
18210;SDS011;9231;48.852;9.882;2023-02-28T13:50:41;7.77;;;5.70;;
18210;SDS011;9231;48.852;9.882;2023-02-28T13:53:26;7.93;;;6.10;;
18210;SDS011;9231;48.852;9.882;2023-02-28T13:55:57;7.73;;;6.50;;
18210;SDS011;9231;48.852;9.882;2023-02-28T13:58:32;7.77;;;6.73;;
18210;SDS011;9231;48.852;9.882;2023-02-28T14:03:47;7.77;;;5.73;;
18210;SDS011;9231;48.852;9.882;2023-02-28T14:06:19;8.30;;;6.13;;
18210;SDS011;9231;48.852;9.882;2023-02-28T14:08:51;6.93;;;5.40;;
18210;SDS011;9231;48.852;9.882;2023-02-28T14:11:29;7.33;;;5.93;;
18210;SDS011;9231;48.852;9.882;2023-02-28T14:13:56;6.87;;;6.17;;
18210;SDS011;9231;48.852;9.882;2023-02-28T14:16:23;7.13;;;6.07;;
18210;SDS011;9231;48.852;9.882;2023-02-28T14:18:55;8.20;;;6.17;;
18210;SDS011;9231;48.852;9.882;2023-02-28T14:21:22;8.53;;;6.40;;
18210;SDS011;9231;48.852;9.882;2023-02-28T14:26:42;8.80;;;6.07;;
18210;SDS011;9231;48.852;9.882;2023-02-28T14:29:16;6.73;;;5.40;;
18210;SDS011;9231;48.852;9.882;2023-02-28T14:31:48;7.80;;;6.30;;
18210;SDS011;9231;48.852;9.882;2023-02-28T14:34:30;7.20;;;6.07;;
18210;SDS011;9231;48.852;9.882;2023-02-28T14:36:58;7.23;;;5.70;;
18210;SDS011;9231;48.852;9.882;2023-02-28T14:39:26;9.37;;;6.20;;
18210;SDS011;9231;48.852;9.882;2023-02-28T14:41:56;6.33;;;5.60;;
18210;SDS011;9231;48.852;9.882;2023-02-28T14:44:24;7.33;;;5.77;;
18210;SDS011;9231;48.852;9.882;2023-02-28T14:46:52;7.50;;;5.87;;
18210;SDS011;9231;48.852;9.882;2023-02-28T14:49:19;7.47;;;5.60;;
18210;SDS011;9231;48.852;9.882;2023-02-28T14:51:49;7.50;;;6.37;;
18210;SDS011;9231;48.852;9.882;2023-02-28T14:54:16;7.90;;;6.27;;
18210;SDS011;9231;48.852;9.882;2023-02-28T14:56:43;7.00;;;6.30;;
18210;SDS011;9231;48.852;9.882;2023-02-28T14:59:22;7.17;;;5.73;;
18210;SDS011;9231;48.852;9.882;2023-02-28T15:01:49;8.87;;;5.87;;
18210;SDS011;9231;48.852;9.882;2023-02-28T15:04:21;7.27;;;6.03;;
18210;SDS011;9231;48.852;9.882;2023-02-28T15:09:31;8.27;;;6.10;;
18210;SDS011;9231;48.852;9.882;2023-02-28T15:11:57;7.20;;;5.80;;
18210;SDS011;9231;48.852;9.882;2023-02-28T15:14:24;8.97;;;6.53;;
18210;SDS011;9231;48.852;9.882;2023-02-28T15:16:55;6.13;;;5.50;;
18210;SDS011;9231;48.852;9.882;2023-02-28T15:19:25;7.93;;;6.00;;
18210;SDS011;9231;48.852;9.882;2023-02-28T15:21:53;7.73;;;6.03;;
18210;SDS011;9231;48.852;9.882;2023-02-28T15:24:21;7.70;;;6.03;;
18210;SDS011;9231;48.852;9.882;2023-02-28T15:26:53;7.30;;;5.80;;
18210;SDS011;9231;48.852;9.882;2023-02-28T15:29:20;7.63;;;6.80;;
18210;SDS011;9231;48.852;9.882;2023-02-28T15:31:48;9.70;;;7.70;;
18210;SDS011;9231;48.852;9.882;2023-02-28T15:34:18;8.23;;;6.80;;
18210;SDS011;9231;48.852;9.882;2023-02-28T15:36:45;11.13;;;8.33;;
18210;SDS011;9231;48.852;9.882;2023-02-28T15:39:18;9.33;;;7.90;;
18210;SDS011;9231;48.852;9.882;2023-02-28T15:41:45;10.57;;;6.53;;